createdAt,value
2023-07-07T00:00:30.121Z,65.64
2023-07-07T00:03:42.384Z,65.68
2023-07-07T00:06:34.381Z,65.46
2023-07-07T00:09:27.085Z,65.73
2023-07-07T00:12:20.616Z,65.64
2023-07-07T00:15:13.594Z,65.62
2023-07-07T00:17:48.713Z,65.59
2023-07-07T00:20:40.950Z,65.73
2023-07-07T00:23:33.704Z,65.88
2023-07-07T00:26:26.988Z,66.01
2023-07-07T00:29:08.929Z,66.03
2023-07-07T00:32:01.299Z,66.02
2023-07-07T00:34:53.413Z,65.99
2023-07-07T00:37:47.526Z,65.94
2023-07-07T00:40:39.599Z,66.08
2023-07-07T00:43:31.871Z,66.22
2023-07-07T00:46:15.814Z,66.29
2023-07-07T00:49:12.438Z,66.38
2023-07-07T00:52:05.182Z,66.27
2023-07-07T00:54:38.419Z,66.25
2023-07-07T00:57:30.818Z,66.45
2023-07-07T01:00:23.436Z,66.57
2023-07-07T01:03:23.334Z,66.65
2023-07-07T01:06:20.381Z,66.67
2023-07-07T01:09:12.604Z,66.77
2023-07-07T01:12:05.185Z,66.68
2023-07-07T01:14:57.275Z,66.74
2023-07-07T01:18:00.951Z,66.78
2023-07-07T01:20:44.665Z,66.62
2023-07-07T01:24:11.556Z,66.69
2023-07-07T01:27:20.308Z,66.83
2023-07-07T01:30:32.717Z,66.85
2023-07-07T01:33:28.876Z,66.93
2023-07-07T01:36:20.926Z,66.89
2023-07-07T01:39:14.210Z,66.83
2023-07-07T01:42:12.335Z,66.97
2023-07-07T01:45:09.024Z,67.03
2023-07-07T01:48:11.398Z,66.89
2023-07-07T01:51:05.925Z,67.02
2023-07-07T01:54:02.009Z,66.86
2023-07-07T01:56:57.122Z,67.10
2023-07-07T01:59:49.862Z,67.30
2023-07-07T02:02:41.916Z,67.45
2023-07-07T02:05:33.965Z,67.40
2023-07-07T02:08:26.025Z,67.36
2023-07-07T02:11:18.136Z,67.31
2023-07-07T02:14:10.249Z,67.50
2023-07-07T02:17:02.471Z,67.52
2023-07-07T02:19:54.515Z,67.49
2023-07-07T02:22:46.554Z,67.61
2023-07-07T02:25:38.642Z,67.43
2023-07-07T02:28:30.686Z,67.43
2023-07-07T02:31:25.524Z,67.40
2023-07-07T02:34:18.083Z,67.57
2023-07-07T02:37:14.254Z,67.75
2023-07-07T02:40:10.358Z,67.78
2023-07-07T02:43:02.463Z,67.58
2023-07-07T02:45:36.801Z,67.41
2023-07-07T02:48:28.919Z,67.71
2023-07-07T02:51:11.317Z,67.82
2023-07-07T02:53:43.072Z,68.00
2023-07-07T02:56:35.186Z,68.10
2023-07-07T02:59:27.370Z,68.12
2023-07-07T03:02:19.717Z,68.21
2023-07-07T03:05:13.491Z,68.10
2023-07-07T03:08:06.197Z,68.29
2023-07-07T03:10:58.511Z,68.26
2023-07-07T03:13:52.205Z,68.34
2023-07-07T03:16:47.714Z,68.39
2023-07-07T03:19:42.801Z,68.36
2023-07-07T03:22:34.953Z,68.38
2023-07-07T03:25:28.345Z,68.46
2023-07-07T03:28:20.484Z,68.46
2023-07-07T03:31:14.799Z,68.38
2023-07-07T03:34:08.667Z,68.27
2023-07-07T03:37:00.759Z,68.46
2023-07-07T03:39:53.258Z,68.63
2023-07-07T03:42:45.340Z,68.58
2023-07-07T03:45:38.292Z,68.66
2023-07-07T03:48:31.007Z,68.91
2023-07-07T03:51:25.235Z,68.83
2023-07-07T03:53:57.151Z,68.78
2023-07-07T03:56:49.271Z,68.84
2023-07-07T03:59:41.637Z,68.91
2023-07-07T04:02:34.746Z,68.93
2023-07-07T04:05:27.004Z,69.05
2023-07-07T04:08:01.843Z,69.10
2023-07-07T04:10:33.860Z,69.17
2023-07-07T04:13:26.117Z,69.27
2023-07-07T04:16:22.246Z,69.31
2023-07-07T04:19:14.538Z,69.29
2023-07-07T04:21:55.395Z,69.40
2023-07-07T04:24:32.901Z,69.36
2023-07-07T04:27:24.961Z,69.42
2023-07-07T04:29:59.799Z,69.47
2023-07-07T04:32:38.707Z,69.61
2023-07-07T04:35:30.895Z,69.66
2023-07-07T04:38:31.672Z,69.75
2023-07-07T04:41:26.311Z,69.65
2023-07-07T04:44:18.430Z,69.57
2023-07-07T04:47:10.794Z,69.55
2023-07-07T04:50:02.896Z,69.53
2023-07-07T04:52:54.991Z,69.36
2023-07-07T04:55:49.343Z,69.22
2023-07-07T04:58:42.526Z,69.03
2023-07-07T05:01:34.986Z,68.70
2023-07-07T05:04:28.370Z,68.40
2023-07-07T05:07:20.533Z,68.37
2023-07-07T05:10:13.186Z,68.35
2023-07-07T05:13:05.318Z,68.11
2023-07-07T05:16:04.411Z,68.05
2023-07-07T05:18:56.683Z,67.71
2023-07-07T05:21:31.235Z,67.55
2023-07-07T05:24:23.259Z,67.59
2023-07-07T05:27:16.039Z,67.16
2023-07-07T05:30:10.388Z,66.60
2023-07-07T05:33:02.402Z,65.49
2023-07-07T05:35:37.282Z,64.99
2023-07-07T05:38:31.073Z,64.92
2023-07-07T05:41:23.253Z,64.71
2023-07-07T05:43:56.801Z,63.92
2023-07-07T05:46:49.035Z,63.88
2023-07-07T05:49:41.104Z,62.89
2023-07-07T05:52:15.478Z,62.61
2023-07-07T05:54:57.864Z,61.72
2023-07-07T05:57:49.968Z,61.27
2023-07-07T06:00:42.456Z,62.09
2023-07-07T06:03:34.763Z,60.38
2023-07-07T06:06:27.191Z,57.13
2023-07-07T06:09:19.655Z,53.66
2023-07-07T06:11:54.814Z,50.67
2023-07-07T06:14:46.977Z,47.83
2023-07-07T06:17:39.277Z,44.36
2023-07-07T06:20:31.753Z,41.22
2023-07-07T06:23:24.261Z,38.68
2023-07-07T06:26:12.220Z,36.95
2023-07-07T06:28:54.415Z,35.03
2023-07-07T06:31:46.554Z,34.47
2023-07-07T06:34:22.187Z,33.38
2023-07-07T06:36:57.052Z,32.13
2023-07-07T06:39:49.287Z,31.30
2023-07-07T06:42:41.400Z,30.41
2023-07-07T06:45:35.282Z,28.86
2023-07-07T06:48:27.379Z,28.02
2023-07-07T06:51:19.976Z,26.48
2023-07-07T06:54:12.217Z,25.84
2023-07-07T06:57:04.746Z,25.18
2023-07-07T06:59:57.205Z,24.04
2023-07-07T07:02:49.559Z,22.90
2023-07-07T07:05:42.031Z,22.10
2023-07-07T07:08:34.181Z,21.37
2023-07-07T07:11:07.347Z,20.75
2023-07-07T07:13:59.656Z,20.14
2023-07-07T07:16:51.740Z,19.58
2023-07-07T07:19:26.567Z,19.51
2023-07-07T07:22:19.574Z,19.85
2023-07-07T07:25:12.545Z,20.73
2023-07-07T07:28:04.880Z,21.62
2023-07-07T07:30:57.062Z,22.36
2023-07-07T07:33:54.406Z,23.18
2023-07-07T07:36:46.508Z,23.48
2023-07-07T07:39:38.919Z,24.28
2023-07-07T07:42:31.543Z,24.61
2023-07-07T07:45:25.358Z,25.44
2023-07-07T07:48:17.699Z,26.03
2023-07-07T07:51:24.174Z,27.30
2023-07-07T07:54:23.133Z,28.42
2023-07-07T07:57:06.938Z,28.11
2023-07-07T07:59:59.048Z,28.28
2023-07-07T08:02:42.851Z,29.28
2023-07-07T08:05:35.265Z,29.89
2023-07-07T08:08:23.596Z,30.23
2023-07-07T08:11:19.297Z,30.59
2023-07-07T08:14:14.169Z,30.03
2023-07-07T08:16:46.825Z,30.89
2023-07-07T08:19:41.124Z,30.70
2023-07-07T08:22:33.264Z,31.65
2023-07-07T08:25:25.953Z,31.52
2023-07-07T08:28:18.023Z,30.80
2023-07-07T08:31:10.168Z,31.03
2023-07-07T08:33:57.701Z,30.60
2023-07-07T08:36:55.204Z,31.06
2023-07-07T08:39:47.964Z,31.08
2023-07-07T08:42:41.937Z,30.98
2023-07-07T08:45:35.178Z,31.19
2023-07-07T08:48:34.385Z,31.70
2023-07-07T08:51:16.862Z,31.59
2023-07-07T08:54:18.800Z,31.53
2023-07-07T08:57:14.742Z,31.58
2023-07-07T09:00:19.216Z,31.84
2023-07-07T09:03:30.772Z,31.90
2023-07-07T09:06:25.933Z,31.43
2023-07-07T09:09:27.308Z,31.56
2023-07-07T09:12:33.204Z,31.61
2023-07-07T09:15:28.209Z,31.55
2023-07-07T09:18:25.389Z,30.29
2023-07-07T09:21:09.954Z,30.95
2023-07-07T09:24:09.452Z,30.95
2023-07-07T09:27:07.035Z,31.10
2023-07-07T09:30:12.864Z,31.43
2023-07-07T09:33:05.163Z,31.92
2023-07-07T09:36:10.497Z,31.90
2023-07-07T09:39:13.967Z,31.22
2023-07-07T09:42:18.405Z,31.26
2023-07-07T09:45:30.300Z,30.49
2023-07-07T09:48:27.356Z,30.03
2023-07-07T09:51:18.231Z,29.47
2023-07-07T09:54:14.290Z,30.69
2023-07-07T09:57:14.509Z,30.30
2023-07-07T10:00:11.247Z,30.27
2023-07-07T10:03:08.812Z,29.64
2023-07-07T10:06:03.370Z,29.87
2023-07-07T10:08:38.430Z,30.05
2023-07-07T10:12:05.749Z,29.52
2023-07-07T10:14:47.892Z,30.13
2023-07-07T10:17:32.327Z,30.34
2023-07-07T10:20:24.647Z,30.56
2023-07-07T10:22:56.566Z,30.59
2023-07-07T10:25:48.965Z,30.88
2023-07-07T10:28:41.616Z,31.10
2023-07-07T10:31:13.743Z,31.40
2023-07-07T10:34:25.831Z,31.53
2023-07-07T10:37:23.070Z,31.95
2023-07-07T10:40:22.788Z,31.97
2023-07-07T10:43:19.682Z,32.13
2023-07-07T10:45:56.806Z,31.70
2023-07-07T10:48:49.209Z,31.24
2023-07-07T10:51:49.892Z,30.74
2023-07-07T10:54:49.545Z,30.44
2023-07-07T10:57:50.548Z,29.65
2023-07-07T11:01:08.067Z,30.19
2023-07-07T11:04:29.703Z,29.17
2023-07-07T11:07:22.954Z,29.59
2023-07-07T11:10:35.995Z,30.08
2023-07-07T11:13:45.458Z,30.60
2023-07-07T11:16:29.427Z,30.46
2023-07-07T11:19:34.093Z,30.67
2023-07-07T11:22:42.930Z,30.76
2023-07-07T11:25:43.260Z,31.14
2023-07-07T11:28:44.236Z,31.27
2023-07-07T11:31:59.445Z,31.71
2023-07-07T11:35:18.030Z,31.07
2023-07-07T11:38:26.829Z,30.80
2023-07-07T11:41:29.108Z,30.68
2023-07-07T11:44:36.219Z,30.27
2023-07-07T11:47:50.969Z,29.79
2023-07-07T11:51:00.256Z,29.67
2023-07-07T11:54:07.551Z,29.91
2023-07-07T11:57:12.733Z,29.80
2023-07-07T12:00:23.875Z,29.21
2023-07-07T12:03:36.942Z,28.95
2023-07-07T12:06:37.417Z,29.57
2023-07-07T12:09:39.323Z,29.63
2023-07-07T12:12:38.336Z,30.10
2023-07-07T12:15:26.608Z,30.46
2023-07-07T12:18:22.967Z,30.40
2023-07-07T12:21:18.416Z,29.86
2023-07-07T12:24:22.130Z,30.03
2023-07-07T12:27:09.922Z,30.04
2023-07-07T12:30:03.318Z,29.99
2023-07-07T12:32:56.287Z,29.79
2023-07-07T12:35:54.031Z,29.88
2023-07-07T12:38:52.419Z,29.69
2023-07-07T12:41:44.465Z,30.11
2023-07-07T12:44:38.259Z,29.70
2023-07-07T12:47:33.406Z,29.25
2023-07-07T12:50:32.126Z,29.36
2023-07-07T12:53:34.448Z,29.55
2023-07-07T12:56:28.271Z,29.59
2023-07-07T12:59:40.480Z,29.40
2023-07-07T13:02:32.609Z,28.98
2023-07-07T13:05:24.434Z,28.51
2023-07-07T13:08:35.027Z,28.64
2023-07-07T13:11:37.271Z,28.85
2023-07-07T13:14:35.650Z,28.73
2023-07-07T13:17:28.604Z,29.25
2023-07-07T13:20:24.087Z,29.28
2023-07-07T13:23:22.607Z,29.69
2023-07-07T13:26:27.160Z,29.87
2023-07-07T13:29:19.355Z,29.91
2023-07-07T13:32:27.613Z,30.06
2023-07-07T13:35:19.848Z,29.86
2023-07-07T13:38:15.733Z,30.07
2023-07-07T13:41:13.985Z,30.42
2023-07-07T13:44:06.377Z,30.59
2023-07-07T13:47:15.916Z,30.90
2023-07-07T13:49:53.339Z,30.48
2023-07-07T13:52:49.725Z,30.23
2023-07-07T13:55:46.636Z,29.91
2023-07-07T13:58:44.550Z,29.71
2023-07-07T14:01:40.481Z,29.79
2023-07-07T14:04:37.070Z,29.74
2023-07-07T14:07:29.200Z,29.56
2023-07-07T14:10:33.137Z,29.78
2023-07-07T14:13:31.972Z,29.68
2023-07-07T14:16:30.370Z,29.54
2023-07-07T14:19:28.975Z,29.21
2023-07-07T14:22:21.396Z,29.65
2023-07-07T14:25:18.861Z,29.47
2023-07-07T14:28:17.452Z,29.81
2023-07-07T14:31:12.549Z,29.78
2023-07-07T14:34:05.826Z,29.95
2023-07-07T14:37:00.920Z,30.15
2023-07-07T14:39:55.807Z,29.95
2023-07-07T14:42:54.071Z,30.40
2023-07-07T14:45:46.340Z,30.21
2023-07-07T14:48:50.865Z,30.19
2023-07-07T14:51:47.858Z,30.55
2023-07-07T14:54:40.244Z,30.94
2023-07-07T14:57:25.452Z,30.78
2023-07-07T15:00:41.415Z,30.95
2023-07-07T15:03:38.529Z,30.86
2023-07-07T15:06:36.148Z,30.75
2023-07-07T15:09:29.519Z,31.41
2023-07-07T15:12:21.633Z,31.43
2023-07-07T15:15:15.494Z,31.43
2023-07-07T15:18:07.709Z,30.89
2023-07-07T15:20:59.734Z,31.31
2023-07-07T15:23:52.097Z,31.19
2023-07-07T15:26:45.066Z,31.47
2023-07-07T15:29:37.607Z,31.37
2023-07-07T15:32:29.918Z,31.59
2023-07-07T15:35:22.230Z,32.00
2023-07-07T15:38:48.505Z,31.49
2023-07-07T15:41:40.565Z,31.53
2023-07-07T15:44:15.472Z,31.64
2023-07-07T15:47:18.437Z,31.49
2023-07-07T15:50:00.619Z,31.48
2023-07-07T15:52:52.741Z,31.47
2023-07-07T15:55:45.270Z,31.20
2023-07-07T15:58:37.278Z,31.57
2023-07-07T16:01:20.732Z,31.43
2023-07-07T16:04:13.019Z,30.95
2023-07-07T16:07:05.638Z,31.23
2023-07-07T16:09:57.635Z,31.46
2023-07-07T16:12:49.808Z,31.48
2023-07-07T16:15:41.940Z,31.75
2023-07-07T16:18:33.979Z,31.72
2023-07-07T16:21:27.835Z,31.72
2023-07-07T16:24:19.922Z,31.87
2023-07-07T16:27:16.607Z,32.06
2023-07-07T16:30:18.040Z,31.63
2023-07-07T16:33:10.414Z,31.68
2023-07-07T16:36:02.505Z,31.85
2023-07-07T16:38:55.275Z,31.65
2023-07-07T16:41:47.721Z,32.31
2023-07-07T16:44:41.863Z,32.03
2023-07-07T16:47:34.075Z,31.80
2023-07-07T16:50:27.828Z,31.94
2023-07-07T16:53:19.863Z,32.85
2023-07-07T16:56:25.955Z,32.65
2023-07-07T16:59:19.197Z,32.67
2023-07-07T17:02:12.734Z,32.83
2023-07-07T17:05:04.822Z,32.75
2023-07-07T17:07:56.820Z,32.72
2023-07-07T17:10:48.909Z,32.81
2023-07-07T17:13:41.115Z,33.25
2023-07-07T17:16:35.396Z,33.73
2023-07-07T17:19:18.604Z,33.38
2023-07-07T17:22:10.792Z,33.47
2023-07-07T17:25:02.945Z,33.59
2023-07-07T17:27:56.436Z,34.05
2023-07-07T17:30:48.517Z,34.42
2023-07-07T17:33:40.656Z,34.54
2023-07-07T17:36:25.041Z,34.63
2023-07-07T17:39:20.006Z,34.56
2023-07-07T17:42:10.539Z,34.89
2023-07-07T17:45:02.740Z,35.22
2023-07-07T17:47:54.831Z,35.33
2023-07-07T17:50:49.771Z,35.35
2023-07-07T17:53:41.842Z,35.64
2023-07-07T17:56:35.536Z,35.52
2023-07-07T17:59:27.643Z,36.13
2023-07-07T18:02:19.766Z,36.55
2023-07-07T18:05:12.129Z,36.73
2023-07-07T18:08:04.370Z,37.40
2023-07-07T18:10:56.695Z,37.88
2023-07-07T18:13:32.008Z,38.07
2023-07-07T18:16:26.219Z,38.84
2023-07-07T18:19:56.112Z,38.79
2023-07-07T18:22:31.638Z,38.75
2023-07-07T18:25:23.766Z,39.43
2023-07-07T18:28:04.500Z,39.08
2023-07-07T18:30:59.958Z,39.79
2023-07-07T18:33:52.434Z,40.50
2023-07-07T18:36:48.211Z,40.57
2023-07-07T18:39:41.584Z,40.63
2023-07-07T18:42:27.054Z,41.54
2023-07-07T18:45:07.858Z,41.88
2023-07-07T18:48:01.703Z,42.43
2023-07-07T18:50:53.973Z,42.64
2023-07-07T18:53:37.590Z,42.93
2023-07-07T18:56:35.065Z,42.95
2023-07-07T18:59:27.188Z,43.42
2023-07-07T19:02:19.330Z,43.79
2023-07-07T19:05:12.093Z,44.13
2023-07-07T19:08:04.123Z,44.29
2023-07-07T19:10:56.177Z,44.71
2023-07-07T19:13:48.474Z,44.96
2023-07-07T19:16:41.128Z,45.39
2023-07-07T19:19:33.294Z,45.73
2023-07-07T19:22:25.403Z,45.98
2023-07-07T19:25:17.555Z,46.13
2023-07-07T19:28:00.815Z,46.22
2023-07-07T19:30:35.620Z,46.50
2023-07-07T19:33:27.911Z,46.79
2023-07-07T19:36:21.971Z,47.00
2023-07-07T19:39:18.400Z,47.00
2023-07-07T19:42:13.962Z,47.17
2023-07-07T19:45:06.858Z,47.61
2023-07-07T19:47:58.939Z,48.04
2023-07-07T19:50:34.178Z,48.03
2023-07-07T19:53:26.257Z,48.41
2023-07-07T19:56:18.614Z,48.60
2023-07-07T19:59:14.459Z,48.98
2023-07-07T20:02:15.100Z,49.06
2023-07-07T20:05:08.006Z,49.46
2023-07-07T20:08:00.228Z,49.55
2023-07-07T20:10:54.307Z,49.64
2023-07-07T20:13:46.941Z,49.85
2023-07-07T20:16:43.714Z,50.07
2023-07-07T20:19:35.870Z,50.04
2023-07-07T20:22:27.923Z,50.50
2023-07-07T20:25:20.324Z,50.66
2023-07-07T20:28:18.019Z,50.80
2023-07-07T20:31:13.427Z,51.04
2023-07-07T20:34:05.858Z,51.41
2023-07-07T20:36:58.040Z,51.70
2023-07-07T20:39:50.387Z,51.99
2023-07-07T20:42:42.601Z,52.33
2023-07-07T20:45:34.642Z,52.47
2023-07-07T20:48:26.712Z,52.71
2023-07-07T20:51:20.592Z,53.00
2023-07-07T20:54:12.622Z,53.35
2023-07-07T20:57:17.383Z,53.52
2023-07-07T21:00:20.984Z,53.64
2023-07-07T21:03:13.535Z,53.83
2023-07-07T21:06:06.283Z,53.98
2023-07-07T21:08:58.413Z,54.17
2023-07-07T21:11:50.723Z,54.38
2023-07-07T21:14:33.037Z,54.54
2023-07-07T21:17:25.204Z,54.60
2023-07-07T21:20:30.643Z,54.68
2023-07-07T21:23:17.077Z,54.98
2023-07-07T21:26:17.619Z,55.14
2023-07-07T21:29:13.980Z,55.34
2023-07-07T21:32:11.216Z,55.50
2023-07-07T21:35:03.620Z,55.62
2023-07-07T21:37:55.735Z,55.72
2023-07-07T21:40:47.910Z,55.99
2023-07-07T21:43:40.061Z,56.10
2023-07-07T21:46:32.166Z,56.27
2023-07-07T21:49:24.231Z,56.51
2023-07-07T21:52:18.256Z,56.58
2023-07-07T21:55:11.400Z,56.81
2023-07-07T21:58:03.415Z,56.99
2023-07-07T22:00:55.540Z,56.96
2023-07-07T22:03:52.817Z,57.06
2023-07-07T22:06:45.161Z,57.24
2023-07-07T22:09:37.187Z,57.37
2023-07-07T22:12:13.119Z,57.52
2023-07-07T22:14:53.611Z,57.57
2023-07-07T22:17:45.725Z,57.68
2023-07-07T22:20:43.101Z,57.84
2023-07-07T22:23:35.556Z,57.93
2023-07-07T22:26:29.121Z,58.09
2023-07-07T22:29:21.155Z,58.18
2023-07-07T22:32:15.545Z,58.26
2023-07-07T22:35:08.751Z,58.40
2023-07-07T22:38:00.796Z,58.49
2023-07-07T22:40:55.995Z,58.58
2023-07-07T22:43:46.492Z,58.56
2023-07-07T22:46:43.981Z,58.96
2023-07-07T22:49:36.132Z,58.78
2023-07-07T22:52:28.304Z,59.04
2023-07-07T22:55:22.249Z,59.14
2023-07-07T22:58:19.113Z,59.28
2023-07-07T23:01:14.373Z,59.42
2023-07-07T23:04:10.205Z,59.46
2023-07-07T23:07:02.317Z,59.63
2023-07-07T23:09:55.907Z,59.75
2023-07-07T23:12:48.809Z,59.77
2023-07-07T23:15:40.842Z,59.73
2023-07-07T23:18:32.891Z,59.81
2023-07-07T23:21:24.917Z,59.89
2023-07-07T23:24:18.508Z,59.97
2023-07-07T23:27:12.314Z,60.01
2023-07-07T23:30:13.820Z,60.01
2023-07-07T23:33:05.125Z,60.15
2023-07-07T23:35:58.454Z,60.35
2023-07-07T23:38:50.512Z,60.31
2023-07-07T23:41:42.551Z,60.31
2023-07-07T23:44:34.607Z,60.30
2023-07-07T23:47:26.804Z,60.38
2023-07-07T23:50:24.962Z,60.39
2023-07-07T23:53:17.463Z,60.46
2023-07-07T23:56:14.444Z,60.54
2023-07-07T23:59:11.878Z,60.57
